sensor_id;sensor_type;location;lat;lon;timestamp;P1;durP1;ratioP1;P2;durP2;ratioP2
27977;SDS011;15314;49.248;6.968;2023-06-22T00:00:24;17.98;;;15.93;;
27977;SDS011;15314;49.248;6.968;2023-06-22T00:01:25;15.90;;;14.50;;
27977;SDS011;15314;49.248;6.968;2023-06-22T00:02:25;16.35;;;14.65;;
27977;SDS011;15314;49.248;6.968;2023-06-22T00:03:26;16.02;;;14.45;;
27977;SDS011;15314;49.248;6.968;2023-06-22T00:04:27;15.98;;;14.40;;
27977;SDS011;15314;49.248;6.968;2023-06-22T00:05:27;16.50;;;15.10;;
27977;SDS011;15314;49.248;6.968;2023-06-22T00:06:28;14.98;;;13.77;;
27977;SDS011;15314;49.248;6.968;2023-06-22T00:07:28;16.10;;;14.57;;
27977;SDS011;15314;49.248;6.968;2023-06-22T00:08:29;15.02;;;13.60;;
27977;SDS011;15314;49.248;6.968;2023-06-22T00:09:30;17.95;;;16.30;;
27977;SDS011;15314;49.248;6.968;2023-06-22T00:10:31;17.77;;;16.00;;
27977;SDS011;15314;49.248;6.968;2023-06-22T00:11:32;14.45;;;13.25;;
27977;SDS011;15314;49.248;6.968;2023-06-22T00:12:33;17.13;;;14.60;;
27977;SDS011;15314;49.248;6.968;2023-06-22T00:13:34;16.27;;;14.77;;
27977;SDS011;15314;49.248;6.968;2023-06-22T00:14:35;16.02;;;14.63;;
27977;SDS011;15314;49.248;6.968;2023-06-22T00:15:36;17.60;;;15.95;;
27977;SDS011;15314;49.248;6.968;2023-06-22T00:16:38;17.48;;;16.02;;
27977;SDS011;15314;49.248;6.968;2023-06-22T00:17:39;15.45;;;14.13;;
27977;SDS011;15314;49.248;6.968;2023-06-22T00:18:39;15.60;;;14.07;;
27977;SDS011;15314;49.248;6.968;2023-06-22T00:19:47;16.88;;;15.43;;
27977;SDS011;15314;49.248;6.968;2023-06-22T00:20:47;15.30;;;13.93;;
27977;SDS011;15314;49.248;6.968;2023-06-22T00:21:48;15.55;;;14.15;;
27977;SDS011;15314;49.248;6.968;2023-06-22T00:22:56;16.48;;;14.90;;
27977;SDS011;15314;49.248;6.968;2023-06-22T00:23:58;15.25;;;13.95;;
27977;SDS011;15314;49.248;6.968;2023-06-22T00:24:58;15.55;;;14.30;;
27977;SDS011;15314;49.248;6.968;2023-06-22T00:25:59;14.48;;;13.38;;
27977;SDS011;15314;49.248;6.968;2023-06-22T00:27:00;16.65;;;15.15;;
27977;SDS011;15314;49.248;6.968;2023-06-22T00:28:01;17.27;;;15.63;;
27977;SDS011;15314;49.248;6.968;2023-06-22T00:29:02;16.60;;;15.07;;
27977;SDS011;15314;49.248;6.968;2023-06-22T00:30:03;15.52;;;14.15;;
27977;SDS011;15314;49.248;6.968;2023-06-22T00:31:04;16.20;;;14.45;;
27977;SDS011;15314;49.248;6.968;2023-06-22T00:32:05;16.40;;;15.10;;
27977;SDS011;15314;49.248;6.968;2023-06-22T00:33:05;15.32;;;14.15;;
27977;SDS011;15314;49.248;6.968;2023-06-22T00:34:07;16.92;;;15.20;;
27977;SDS011;15314;49.248;6.968;2023-06-22T00:35:09;15.00;;;13.60;;
27977;SDS011;15314;49.248;6.968;2023-06-22T00:36:12;17.88;;;16.02;;
27977;SDS011;15314;49.248;6.968;2023-06-22T00:37:16;14.80;;;13.70;;
27977;SDS011;15314;49.248;6.968;2023-06-22T00:38:17;15.30;;;13.90;;
27977;SDS011;15314;49.248;6.968;2023-06-22T00:39:18;15.10;;;13.93;;
27977;SDS011;15314;49.248;6.968;2023-06-22T00:40:18;16.95;;;15.38;;
27977;SDS011;15314;49.248;6.968;2023-06-22T00:41:21;16.73;;;15.10;;
27977;SDS011;15314;49.248;6.968;2023-06-22T00:42:22;16.15;;;14.50;;
27977;SDS011;15314;49.248;6.968;2023-06-22T00:43:23;17.63;;;15.93;;
27977;SDS011;15314;49.248;6.968;2023-06-22T00:44:23;16.67;;;15.10;;
27977;SDS011;15314;49.248;6.968;2023-06-22T00:45:24;20.70;;;16.38;;
27977;SDS011;15314;49.248;6.968;2023-06-22T00:46:26;16.27;;;14.70;;
27977;SDS011;15314;49.248;6.968;2023-06-22T00:47:26;18.35;;;15.43;;
27977;SDS011;15314;49.248;6.968;2023-06-22T00:48:27;19.27;;;17.25;;
27977;SDS011;15314;49.248;6.968;2023-06-22T00:49:28;20.00;;;16.75;;
27977;SDS011;15314;49.248;6.968;2023-06-22T00:50:30;20.77;;;17.23;;
27977;SDS011;15314;49.248;6.968;2023-06-22T00:51:35;23.95;;;16.88;;
27977;SDS011;15314;49.248;6.968;2023-06-22T00:52:38;22.52;;;17.70;;
27977;SDS011;15314;49.248;6.968;2023-06-22T00:53:44;20.45;;;17.13;;
27977;SDS011;15314;49.248;6.968;2023-06-22T00:54:45;19.02;;;17.13;;
27977;SDS011;15314;49.248;6.968;2023-06-22T00:55:46;16.52;;;14.73;;
27977;SDS011;15314;49.248;6.968;2023-06-22T00:56:47;16.95;;;14.93;;
27977;SDS011;15314;49.248;6.968;2023-06-22T00:57:48;20.15;;;17.17;;
27977;SDS011;15314;49.248;6.968;2023-06-22T00:58:50;21.10;;;16.45;;
27977;SDS011;15314;49.248;6.968;2023-06-22T00:59:52;15.80;;;14.43;;
27977;SDS011;15314;49.248;6.968;2023-06-22T01:00:54;15.80;;;14.43;;
27977;SDS011;15314;49.248;6.968;2023-06-22T01:01:54;16.50;;;14.77;;
27977;SDS011;15314;49.248;6.968;2023-06-22T01:02:55;15.65;;;14.27;;
27977;SDS011;15314;49.248;6.968;2023-06-22T01:03:56;18.35;;;16.63;;
27977;SDS011;15314;49.248;6.968;2023-06-22T01:04:58;17.50;;;15.98;;
27977;SDS011;15314;49.248;6.968;2023-06-22T01:06:01;20.70;;;15.70;;
27977;SDS011;15314;49.248;6.968;2023-06-22T01:07:10;17.77;;;15.95;;
27977;SDS011;15314;49.248;6.968;2023-06-22T01:11:37;18.40;;;16.40;;
27977;SDS011;15314;49.248;6.968;2023-06-22T01:12:51;24.50;;;17.15;;
27977;SDS011;15314;49.248;6.968;2023-06-22T01:16:34;17.98;;;16.08;;
27977;SDS011;15314;49.248;6.968;2023-06-22T01:17:37;16.88;;;15.23;;
27977;SDS011;15314;49.248;6.968;2023-06-22T01:18:43;17.80;;;16.02;;
27977;SDS011;15314;49.248;6.968;2023-06-22T01:19:51;17.40;;;15.90;;
27977;SDS011;15314;49.248;6.968;2023-06-22T01:20:56;18.38;;;15.70;;
27977;SDS011;15314;49.248;6.968;2023-06-22T01:21:57;17.27;;;15.25;;
27977;SDS011;15314;49.248;6.968;2023-06-22T01:24:34;15.40;;;14.10;;
27977;SDS011;15314;49.248;6.968;2023-06-22T01:25:46;15.30;;;14.10;;
27977;SDS011;15314;49.248;6.968;2023-06-22T01:28:10;15.80;;;14.43;;
27977;SDS011;15314;49.248;6.968;2023-06-22T01:29:17;16.27;;;14.85;;
27977;SDS011;15314;49.248;6.968;2023-06-22T01:30:21;17.83;;;16.38;;
27977;SDS011;15314;49.248;6.968;2023-06-22T01:31:25;18.08;;;16.27;;
27977;SDS011;15314;49.248;6.968;2023-06-22T01:32:31;15.65;;;14.23;;
27977;SDS011;15314;49.248;6.968;2023-06-22T01:33:35;17.10;;;15.57;;
27977;SDS011;15314;49.248;6.968;2023-06-22T01:34:39;17.13;;;15.68;;
27977;SDS011;15314;49.248;6.968;2023-06-22T01:35:41;17.63;;;16.23;;
27977;SDS011;15314;49.248;6.968;2023-06-22T01:36:42;17.40;;;15.60;;
27977;SDS011;15314;49.248;6.968;2023-06-22T01:37:43;16.85;;;15.15;;
27977;SDS011;15314;49.248;6.968;2023-06-22T01:38:45;16.92;;;15.63;;
27977;SDS011;15314;49.248;6.968;2023-06-22T01:39:47;17.20;;;15.70;;
27977;SDS011;15314;49.248;6.968;2023-06-22T01:40:48;17.13;;;15.63;;
27977;SDS011;15314;49.248;6.968;2023-06-22T01:41:50;16.45;;;15.18;;
27977;SDS011;15314;49.248;6.968;2023-06-22T01:42:51;18.60;;;16.88;;
27977;SDS011;15314;49.248;6.968;2023-06-22T01:43:52;17.15;;;15.55;;
27977;SDS011;15314;49.248;6.968;2023-06-22T01:44:54;18.15;;;16.33;;
27977;SDS011;15314;49.248;6.968;2023-06-22T01:45:56;16.40;;;14.88;;
27977;SDS011;15314;49.248;6.968;2023-06-22T01:46:58;15.70;;;14.48;;
27977;SDS011;15314;49.248;6.968;2023-06-22T01:48:00;18.30;;;16.52;;
27977;SDS011;15314;49.248;6.968;2023-06-22T01:49:01;18.77;;;17.25;;
27977;SDS011;15314;49.248;6.968;2023-06-22T01:50:02;18.17;;;16.63;;
27977;SDS011;15314;49.248;6.968;2023-06-22T01:51:04;17.42;;;16.08;;
27977;SDS011;15314;49.248;6.968;2023-06-22T01:52:05;17.13;;;15.35;;
27977;SDS011;15314;49.248;6.968;2023-06-22T01:53:06;18.17;;;16.58;;
27977;SDS011;15314;49.248;6.968;2023-06-22T01:54:07;17.88;;;16.15;;
27977;SDS011;15314;49.248;6.968;2023-06-22T01:55:08;19.00;;;17.27;;
27977;SDS011;15314;49.248;6.968;2023-06-22T01:56:09;19.15;;;17.30;;
27977;SDS011;15314;49.248;6.968;2023-06-22T01:57:09;17.98;;;16.35;;
27977;SDS011;15314;49.248;6.968;2023-06-22T01:58:11;21.08;;;19.13;;
27977;SDS011;15314;49.248;6.968;2023-06-22T01:59:14;17.40;;;16.00;;
27977;SDS011;15314;49.248;6.968;2023-06-22T02:00:21;19.63;;;17.67;;
27977;SDS011;15314;49.248;6.968;2023-06-22T02:01:25;18.80;;;17.10;;
27977;SDS011;15314;49.248;6.968;2023-06-22T02:02:33;18.23;;;16.65;;
27977;SDS011;15314;49.248;6.968;2023-06-22T02:03:55;17.73;;;16.17;;
27977;SDS011;15314;49.248;6.968;2023-06-22T02:05:06;19.27;;;17.55;;
27977;SDS011;15314;49.248;6.968;2023-06-22T02:06:15;17.40;;;15.90;;
27977;SDS011;15314;49.248;6.968;2023-06-22T02:07:18;19.00;;;17.13;;
27977;SDS011;15314;49.248;6.968;2023-06-22T02:08:25;20.30;;;18.45;;
27977;SDS011;15314;49.248;6.968;2023-06-22T02:09:30;18.40;;;16.70;;
27977;SDS011;15314;49.248;6.968;2023-06-22T02:10:32;19.17;;;17.50;;
27977;SDS011;15314;49.248;6.968;2023-06-22T02:11:36;18.23;;;16.63;;
27977;SDS011;15314;49.248;6.968;2023-06-22T02:12:38;20.08;;;18.25;;
27977;SDS011;15314;49.248;6.968;2023-06-22T02:13:40;17.75;;;16.27;;
27977;SDS011;15314;49.248;6.968;2023-06-22T02:14:43;17.02;;;15.57;;
27977;SDS011;15314;49.248;6.968;2023-06-22T02:15:46;17.73;;;16.23;;
27977;SDS011;15314;49.248;6.968;2023-06-22T02:16:48;20.02;;;18.10;;
27977;SDS011;15314;49.248;6.968;2023-06-22T02:17:49;18.35;;;16.60;;
27977;SDS011;15314;49.248;6.968;2023-06-22T02:18:50;17.83;;;16.27;;
27977;SDS011;15314;49.248;6.968;2023-06-22T02:19:51;17.50;;;15.77;;
27977;SDS011;15314;49.248;6.968;2023-06-22T02:20:52;18.98;;;17.35;;
27977;SDS011;15314;49.248;6.968;2023-06-22T02:21:53;16.33;;;15.13;;
27977;SDS011;15314;49.248;6.968;2023-06-22T02:22:53;16.98;;;15.52;;
27977;SDS011;15314;49.248;6.968;2023-06-22T02:23:54;17.92;;;16.13;;
27977;SDS011;15314;49.248;6.968;2023-06-22T02:24:54;16.80;;;15.40;;
27977;SDS011;15314;49.248;6.968;2023-06-22T02:25:56;19.00;;;17.38;;
27977;SDS011;15314;49.248;6.968;2023-06-22T02:27:00;18.83;;;17.15;;
27977;SDS011;15314;49.248;6.968;2023-06-22T02:28:02;17.55;;;16.23;;
27977;SDS011;15314;49.248;6.968;2023-06-22T02:29:03;19.77;;;18.00;;
27977;SDS011;15314;49.248;6.968;2023-06-22T02:30:04;17.23;;;15.77;;
27977;SDS011;15314;49.248;6.968;2023-06-22T02:31:05;17.63;;;16.23;;
27977;SDS011;15314;49.248;6.968;2023-06-22T02:32:06;20.10;;;18.35;;
27977;SDS011;15314;49.248;6.968;2023-06-22T02:33:07;19.25;;;17.55;;
27977;SDS011;15314;49.248;6.968;2023-06-22T02:34:08;18.88;;;17.27;;
27977;SDS011;15314;49.248;6.968;2023-06-22T02:35:11;18.65;;;16.92;;
27977;SDS011;15314;49.248;6.968;2023-06-22T02:36:12;18.48;;;17.08;;
27977;SDS011;15314;49.248;6.968;2023-06-22T02:37:16;17.88;;;16.08;;
27977;SDS011;15314;49.248;6.968;2023-06-22T02:38:16;17.60;;;16.20;;
27977;SDS011;15314;49.248;6.968;2023-06-22T02:39:20;17.63;;;16.23;;
27977;SDS011;15314;49.248;6.968;2023-06-22T02:40:22;17.05;;;15.65;;
27977;SDS011;15314;49.248;6.968;2023-06-22T02:41:23;18.05;;;16.45;;
27977;SDS011;15314;49.248;6.968;2023-06-22T02:42:23;18.10;;;16.60;;
27977;SDS011;15314;49.248;6.968;2023-06-22T02:43:24;18.55;;;16.80;;
27977;SDS011;15314;49.248;6.968;2023-06-22T02:44:25;18.90;;;17.17;;
27977;SDS011;15314;49.248;6.968;2023-06-22T02:45:25;18.80;;;17.13;;
27977;SDS011;15314;49.248;6.968;2023-06-22T02:46:26;18.58;;;16.98;;
27977;SDS011;15314;49.248;6.968;2023-06-22T02:47:27;17.70;;;16.35;;
27977;SDS011;15314;49.248;6.968;2023-06-22T02:48:27;19.70;;;17.80;;
27977;SDS011;15314;49.248;6.968;2023-06-22T02:49:28;17.73;;;15.98;;
27977;SDS011;15314;49.248;6.968;2023-06-22T02:50:29;18.60;;;16.98;;
27977;SDS011;15314;49.248;6.968;2023-06-22T02:51:32;18.40;;;16.67;;
27977;SDS011;15314;49.248;6.968;2023-06-22T02:52:36;24.00;;;17.77;;
27977;SDS011;15314;49.248;6.968;2023-06-22T02:53:38;19.60;;;17.90;;
27977;SDS011;15314;49.248;6.968;2023-06-22T02:54:38;18.42;;;16.83;;
27977;SDS011;15314;49.248;6.968;2023-06-22T02:55:39;19.25;;;17.42;;
27977;SDS011;15314;49.248;6.968;2023-06-22T02:56:39;18.90;;;17.33;;
27977;SDS011;15314;49.248;6.968;2023-06-22T02:57:40;18.65;;;17.15;;
27977;SDS011;15314;49.248;6.968;2023-06-22T02:58:43;19.33;;;17.65;;
27977;SDS011;15314;49.248;6.968;2023-06-22T02:59:44;19.92;;;18.23;;
27977;SDS011;15314;49.248;6.968;2023-06-22T03:00:44;19.20;;;17.30;;
27977;SDS011;15314;49.248;6.968;2023-06-22T03:01:45;18.77;;;17.17;;
27977;SDS011;15314;49.248;6.968;2023-06-22T03:02:46;17.95;;;16.45;;
27977;SDS011;15314;49.248;6.968;2023-06-22T03:03:48;19.10;;;17.50;;
27977;SDS011;15314;49.248;6.968;2023-06-22T03:04:48;19.00;;;17.40;;
27977;SDS011;15314;49.248;6.968;2023-06-22T03:05:49;20.10;;;18.30;;
27977;SDS011;15314;49.248;6.968;2023-06-22T03:06:52;18.73;;;17.08;;
27977;SDS011;15314;49.248;6.968;2023-06-22T03:07:53;17.98;;;16.60;;
27977;SDS011;15314;49.248;6.968;2023-06-22T03:08:58;18.75;;;17.23;;
27977;SDS011;15314;49.248;6.968;2023-06-22T03:10:00;18.15;;;16.85;;
27977;SDS011;15314;49.248;6.968;2023-06-22T03:11:00;17.63;;;16.20;;
27977;SDS011;15314;49.248;6.968;2023-06-22T03:12:01;16.65;;;15.40;;
27977;SDS011;15314;49.248;6.968;2023-06-22T03:13:02;18.35;;;16.75;;
27977;SDS011;15314;49.248;6.968;2023-06-22T03:14:03;18.55;;;17.08;;
27977;SDS011;15314;49.248;6.968;2023-06-22T03:15:05;19.42;;;17.80;;
27977;SDS011;15314;49.248;6.968;2023-06-22T03:16:06;16.35;;;15.00;;
27977;SDS011;15314;49.248;6.968;2023-06-22T03:17:07;18.00;;;16.52;;
27977;SDS011;15314;49.248;6.968;2023-06-22T03:18:07;17.50;;;16.00;;
27977;SDS011;15314;49.248;6.968;2023-06-22T03:19:08;18.35;;;16.73;;
27977;SDS011;15314;49.248;6.968;2023-06-22T03:20:09;17.73;;;16.17;;
27977;SDS011;15314;49.248;6.968;2023-06-22T03:21:11;20.42;;;18.73;;
27977;SDS011;15314;49.248;6.968;2023-06-22T03:22:12;18.98;;;17.48;;
27977;SDS011;15314;49.248;6.968;2023-06-22T03:23:15;17.48;;;16.05;;
27977;SDS011;15314;49.248;6.968;2023-06-22T03:24:15;18.33;;;16.70;;
27977;SDS011;15314;49.248;6.968;2023-06-22T03:25:16;19.10;;;17.30;;
27977;SDS011;15314;49.248;6.968;2023-06-22T03:26:17;20.45;;;18.67;;
27977;SDS011;15314;49.248;6.968;2023-06-22T03:27:18;21.88;;;19.98;;
27977;SDS011;15314;49.248;6.968;2023-06-22T03:28:19;19.30;;;17.33;;
27977;SDS011;15314;49.248;6.968;2023-06-22T03:29:19;18.67;;;17.17;;
27977;SDS011;15314;49.248;6.968;2023-06-22T03:30:20;20.83;;;19.15;;
27977;SDS011;15314;49.248;6.968;2023-06-22T03:31:21;21.35;;;19.25;;
27977;SDS011;15314;49.248;6.968;2023-06-22T03:32:22;18.77;;;17.30;;
27977;SDS011;15314;49.248;6.968;2023-06-22T03:33:22;30.90;;;27.98;;
27977;SDS011;15314;49.248;6.968;2023-06-22T03:34:23;20.55;;;18.77;;
27977;SDS011;15314;49.248;6.968;2023-06-22T03:35:23;18.40;;;16.90;;
27977;SDS011;15314;49.248;6.968;2023-06-22T03:36:24;20.70;;;19.00;;
27977;SDS011;15314;49.248;6.968;2023-06-22T03:37:25;19.20;;;17.60;;
27977;SDS011;15314;49.248;6.968;2023-06-22T03:38:26;17.63;;;16.33;;
27977;SDS011;15314;49.248;6.968;2023-06-22T03:39:27;18.08;;;16.48;;
27977;SDS011;15314;49.248;6.968;2023-06-22T03:40:27;18.13;;;16.48;;
27977;SDS011;15314;49.248;6.968;2023-06-22T03:41:29;20.23;;;18.38;;
27977;SDS011;15314;49.248;6.968;2023-06-22T03:42:30;19.83;;;18.17;;
27977;SDS011;15314;49.248;6.968;2023-06-22T03:43:30;19.25;;;17.65;;
27977;SDS011;15314;49.248;6.968;2023-06-22T03:44:31;19.33;;;17.63;;
27977;SDS011;15314;49.248;6.968;2023-06-22T03:45:31;18.42;;;16.92;;
27977;SDS011;15314;49.248;6.968;2023-06-22T03:46:32;17.75;;;16.38;;
27977;SDS011;15314;49.248;6.968;2023-06-22T03:47:33;19.23;;;17.63;;
27977;SDS011;15314;49.248;6.968;2023-06-22T03:48:33;20.80;;;19.00;;
27977;SDS011;15314;49.248;6.968;2023-06-22T03:49:34;19.45;;;17.90;;
27977;SDS011;15314;49.248;6.968;2023-06-22T03:50:35;21.50;;;19.52;;
27977;SDS011;15314;49.248;6.968;2023-06-22T03:51:35;20.50;;;18.90;;
27977;SDS011;15314;49.248;6.968;2023-06-22T03:52:36;20.48;;;18.98;;
27977;SDS011;15314;49.248;6.968;2023-06-22T03:53:37;20.92;;;18.73;;
27977;SDS011;15314;49.248;6.968;2023-06-22T03:54:37;20.83;;;19.17;;
27977;SDS011;15314;49.248;6.968;2023-06-22T03:55:40;20.52;;;18.73;;
27977;SDS011;15314;49.248;6.968;2023-06-22T03:56:48;18.20;;;16.73;;
27977;SDS011;15314;49.248;6.968;2023-06-22T03:57:49;18.30;;;16.85;;
27977;SDS011;15314;49.248;6.968;2023-06-22T03:58:50;21.70;;;19.83;;
27977;SDS011;15314;49.248;6.968;2023-06-22T03:59:50;19.08;;;17.38;;
27977;SDS011;15314;49.248;6.968;2023-06-22T04:00:52;19.73;;;18.00;;
27977;SDS011;15314;49.248;6.968;2023-06-22T04:01:53;21.70;;;20.00;;
27977;SDS011;15314;49.248;6.968;2023-06-22T04:02:54;22.38;;;20.38;;
27977;SDS011;15314;49.248;6.968;2023-06-22T04:03:55;20.73;;;19.02;;
27977;SDS011;15314;49.248;6.968;2023-06-22T04:04:55;19.38;;;17.45;;
27977;SDS011;15314;49.248;6.968;2023-06-22T04:05:56;22.27;;;20.30;;
27977;SDS011;15314;49.248;6.968;2023-06-22T04:06:56;19.95;;;18.35;;
27977;SDS011;15314;49.248;6.968;2023-06-22T04:07:57;19.52;;;17.77;;
27977;SDS011;15314;49.248;6.968;2023-06-22T04:08:58;20.42;;;18.45;;
27977;SDS011;15314;49.248;6.968;2023-06-22T04:09:58;19.17;;;17.70;;
27977;SDS011;15314;49.248;6.968;2023-06-22T04:10:59;20.83;;;18.88;;
27977;SDS011;15314;49.248;6.968;2023-06-22T04:12:00;18.63;;;17.10;;
27977;SDS011;15314;49.248;6.968;2023-06-22T04:13:01;20.55;;;18.85;;
27977;SDS011;15314;49.248;6.968;2023-06-22T04:14:02;20.50;;;18.90;;
27977;SDS011;15314;49.248;6.968;2023-06-22T04:15:03;19.27;;;17.63;;
27977;SDS011;15314;49.248;6.968;2023-06-22T04:16:04;19.50;;;17.80;;
27977;SDS011;15314;49.248;6.968;2023-06-22T04:17:04;20.80;;;18.90;;
27977;SDS011;15314;49.248;6.968;2023-06-22T04:18:05;20.25;;;18.65;;
27977;SDS011;15314;49.248;6.968;2023-06-22T04:19:06;19.88;;;18.27;;
27977;SDS011;15314;49.248;6.968;2023-06-22T04:20:07;19.63;;;17.92;;
27977;SDS011;15314;49.248;6.968;2023-06-22T04:21:08;19.85;;;18.15;;
27977;SDS011;15314;49.248;6.968;2023-06-22T04:22:08;20.13;;;18.38;;
27977;SDS011;15314;49.248;6.968;2023-06-22T04:23:10;20.45;;;18.73;;
27977;SDS011;15314;49.248;6.968;2023-06-22T04:24:11;20.20;;;18.58;;
27977;SDS011;15314;49.248;6.968;2023-06-22T04:25:11;21.50;;;19.65;;
27977;SDS011;15314;49.248;6.968;2023-06-22T04:26:12;20.55;;;18.92;;
27977;SDS011;15314;49.248;6.968;2023-06-22T04:27:16;21.52;;;19.45;;
27977;SDS011;15314;49.248;6.968;2023-06-22T04:28:18;21.25;;;19.45;;
27977;SDS011;15314;49.248;6.968;2023-06-22T04:29:19;22.38;;;20.40;;
27977;SDS011;15314;49.248;6.968;2023-06-22T04:30:20;20.58;;;18.88;;
27977;SDS011;15314;49.248;6.968;2023-06-22T04:31:20;20.83;;;19.15;;
27977;SDS011;15314;49.248;6.968;2023-06-22T04:32:21;19.75;;;18.08;;
27977;SDS011;15314;49.248;6.968;2023-06-22T04:33:22;19.85;;;18.15;;
27977;SDS011;15314;49.248;6.968;2023-06-22T04:34:22;19.35;;;17.95;;
27977;SDS011;15314;49.248;6.968;2023-06-22T04:35:26;22.02;;;20.20;;
27977;SDS011;15314;49.248;6.968;2023-06-22T04:36:28;19.38;;;17.65;;
27977;SDS011;15314;49.248;6.968;2023-06-22T04:37:31;20.55;;;18.85;;
27977;SDS011;15314;49.248;6.968;2023-06-22T04:38:31;20.52;;;18.55;;
27977;SDS011;15314;49.248;6.968;2023-06-22T04:39:35;19.60;;;18.10;;
27977;SDS011;15314;49.248;6.968;2023-06-22T04:40:35;21.17;;;19.48;;
27977;SDS011;15314;49.248;6.968;2023-06-22T04:41:39;18.98;;;17.58;;
27977;SDS011;15314;49.248;6.968;2023-06-22T04:42:43;19.13;;;17.63;;
27977;SDS011;15314;49.248;6.968;2023-06-22T04:43:52;20.85;;;19.15;;
27977;SDS011;15314;49.248;6.968;2023-06-22T04:44:54;19.90;;;18.20;;
27977;SDS011;15314;49.248;6.968;2023-06-22T04:45:54;19.35;;;17.75;;
27977;SDS011;15314;49.248;6.968;2023-06-22T04:46:59;17.38;;;16.05;;
27977;SDS011;15314;49.248;6.968;2023-06-22T04:48:04;17.33;;;16.02;;
27977;SDS011;15314;49.248;6.968;2023-06-22T04:49:08;19.90;;;18.35;;
27977;SDS011;15314;49.248;6.968;2023-06-22T04:50:09;20.20;;;18.40;;
27977;SDS011;15314;49.248;6.968;2023-06-22T04:51:10;18.27;;;16.83;;
27977;SDS011;15314;49.248;6.968;2023-06-22T04:52:11;20.10;;;18.60;;
27977;SDS011;15314;49.248;6.968;2023-06-22T04:53:13;21.05;;;19.23;;
27977;SDS011;15314;49.248;6.968;2023-06-22T04:54:14;20.83;;;18.80;;
27977;SDS011;15314;49.248;6.968;2023-06-22T04:55:15;18.23;;;16.92;;
27977;SDS011;15314;49.248;6.968;2023-06-22T04:56:19;19.50;;;17.92;;
27977;SDS011;15314;49.248;6.968;2023-06-22T04:57:21;18.98;;;17.48;;
27977;SDS011;15314;49.248;6.968;2023-06-22T04:58:30;19.20;;;17.55;;
27977;SDS011;15314;49.248;6.968;2023-06-22T04:59:32;18.88;;;17.17;;
27977;SDS011;15314;49.248;6.968;2023-06-22T05:00:33;19.25;;;17.75;;
27977;SDS011;15314;49.248;6.968;2023-06-22T05:01:36;20.23;;;18.17;;
27977;SDS011;15314;49.248;6.968;2023-06-22T05:02:37;20.67;;;18.92;;
27977;SDS011;15314;49.248;6.968;2023-06-22T05:03:39;18.48;;;17.08;;
27977;SDS011;15314;49.248;6.968;2023-06-22T05:04:41;20.10;;;18.38;;
27977;SDS011;15314;49.248;6.968;2023-06-22T05:05:42;18.98;;;17.58;;
27977;SDS011;15314;49.248;6.968;2023-06-22T05:06:43;18.92;;;17.27;;
27977;SDS011;15314;49.248;6.968;2023-06-22T05:07:44;19.13;;;17.63;;
27977;SDS011;15314;49.248;6.968;2023-06-22T05:08:53;19.35;;;17.75;;
27977;SDS011;15314;49.248;6.968;2023-06-22T05:09:58;19.02;;;17.10;;
27977;SDS011;15314;49.248;6.968;2023-06-22T05:10:59;19.80;;;18.20;;
27977;SDS011;15314;49.248;6.968;2023-06-22T05:12:00;19.40;;;17.80;;
27977;SDS011;15314;49.248;6.968;2023-06-22T05:13:02;18.85;;;17.20;;
27977;SDS011;15314;49.248;6.968;2023-06-22T05:14:03;18.10;;;16.67;;
27977;SDS011;15314;49.248;6.968;2023-06-22T05:15:04;18.25;;;16.70;;
27977;SDS011;15314;49.248;6.968;2023-06-22T05:16:06;19.95;;;17.88;;
27977;SDS011;15314;49.248;6.968;2023-06-22T05:17:07;17.85;;;16.35;;
27977;SDS011;15314;49.248;6.968;2023-06-22T05:18:13;19.67;;;17.70;;
27977;SDS011;15314;49.248;6.968;2023-06-22T05:19:14;18.55;;;16.73;;
27977;SDS011;15314;49.248;6.968;2023-06-22T05:20:14;18.00;;;16.40;;
27977;SDS011;15314;49.248;6.968;2023-06-22T05:21:18;18.10;;;16.65;;
27977;SDS011;15314;49.248;6.968;2023-06-22T05:22:19;17.67;;;16.10;;
27977;SDS011;15314;49.248;6.968;2023-06-22T05:23:19;18.15;;;16.77;;
27977;SDS011;15314;49.248;6.968;2023-06-22T05:24:20;18.67;;;17.27;;
27977;SDS011;15314;49.248;6.968;2023-06-22T05:25:21;19.05;;;17.55;;
27977;SDS011;15314;49.248;6.968;2023-06-22T05:26:22;17.42;;;16.05;;
27977;SDS011;15314;49.248;6.968;2023-06-22T05:27:22;18.45;;;16.88;;
27977;SDS011;15314;49.248;6.968;2023-06-22T05:28:23;17.67;;;16.27;;
27977;SDS011;15314;49.248;6.968;2023-06-22T05:29:24;18.88;;;17.48;;
27977;SDS011;15314;49.248;6.968;2023-06-22T05:30:26;17.73;;;16.23;;
27977;SDS011;15314;49.248;6.968;2023-06-22T05:31:27;19.13;;;17.60;;
27977;SDS011;15314;49.248;6.968;2023-06-22T05:32:28;19.55;;;17.92;;
27977;SDS011;15314;49.248;6.968;2023-06-22T05:33:29;18.17;;;16.73;;
27977;SDS011;15314;49.248;6.968;2023-06-22T05:34:30;25.20;;;22.60;;
27977;SDS011;15314;49.248;6.968;2023-06-22T05:35:30;22.70;;;20.45;;
27977;SDS011;15314;49.248;6.968;2023-06-22T05:36:31;22.05;;;20.13;;
27977;SDS011;15314;49.248;6.968;2023-06-22T05:37:31;20.48;;;18.70;;
27977;SDS011;15314;49.248;6.968;2023-06-22T05:38:32;18.38;;;16.77;;
27977;SDS011;15314;49.248;6.968;2023-06-22T05:39:33;18.92;;;17.33;;
27977;SDS011;15314;49.248;6.968;2023-06-22T05:40:33;18.95;;;17.33;;
27977;SDS011;15314;49.248;6.968;2023-06-22T05:41:34;17.92;;;16.42;;
27977;SDS011;15314;49.248;6.968;2023-06-22T05:42:35;19.33;;;17.70;;
27977;SDS011;15314;49.248;6.968;2023-06-22T05:43:35;24.05;;;21.80;;
27977;SDS011;15314;49.248;6.968;2023-06-22T05:44:36;19.17;;;17.48;;
27977;SDS011;15314;49.248;6.968;2023-06-22T05:45:38;21.63;;;19.63;;
27977;SDS011;15314;49.248;6.968;2023-06-22T05:46:42;20.38;;;18.75;;
27977;SDS011;15314;49.248;6.968;2023-06-22T05:47:48;19.38;;;17.42;;
27977;SDS011;15314;49.248;6.968;2023-06-22T05:48:48;18.45;;;16.85;;
27977;SDS011;15314;49.248;6.968;2023-06-22T05:49:49;18.30;;;16.35;;
27977;SDS011;15314;49.248;6.968;2023-06-22T05:50:50;17.90;;;16.52;;
27977;SDS011;15314;49.248;6.968;2023-06-22T05:51:50;18.88;;;17.35;;
27977;SDS011;15314;49.248;6.968;2023-06-22T05:52:51;19.52;;;17.58;;
27977;SDS011;15314;49.248;6.968;2023-06-22T05:53:52;18.48;;;17.05;;
27977;SDS011;15314;49.248;6.968;2023-06-22T05:54:53;18.70;;;17.27;;
27977;SDS011;15314;49.248;6.968;2023-06-22T05:55:53;18.65;;;16.98;;
27977;SDS011;15314;49.248;6.968;2023-06-22T05:56:54;19.23;;;17.70;;
27977;SDS011;15314;49.248;6.968;2023-06-22T05:57:54;19.55;;;17.70;;
27977;SDS011;15314;49.248;6.968;2023-06-22T05:58:55;19.38;;;17.75;;
27977;SDS011;15314;49.248;6.968;2023-06-22T05:59:56;19.00;;;17.50;;
27977;SDS011;15314;49.248;6.968;2023-06-22T06:00:57;18.38;;;16.98;;
27977;SDS011;15314;49.248;6.968;2023-06-22T06:01:57;19.75;;;18.15;;
27977;SDS011;15314;49.248;6.968;2023-06-22T06:02:58;19.20;;;17.48;;
27977;SDS011;15314;49.248;6.968;2023-06-22T06:04:03;19.38;;;17.77;;
27977;SDS011;15314;49.248;6.968;2023-06-22T06:05:04;18.92;;;17.25;;
27977;SDS011;15314;49.248;6.968;2023-06-22T06:06:05;18.10;;;16.73;;
27977;SDS011;15314;49.248;6.968;2023-06-22T06:07:06;18.38;;;16.95;;
27977;SDS011;15314;49.248;6.968;2023-06-22T06:08:07;19.92;;;18.20;;
27977;SDS011;15314;49.248;6.968;2023-06-22T06:09:08;18.73;;;17.33;;
27977;SDS011;15314;49.248;6.968;2023-06-22T06:10:09;19.50;;;17.77;;